createdAt,value
2018-04-02T00:26:43.404Z,9.40
2018-04-02T01:08:28.740Z,8.80
2018-04-02T01:18:42.218Z,8.57
2018-04-02T01:29:00.606Z,9.10
2018-04-02T01:39:14.839Z,8.83
2018-04-02T01:49:27.221Z,8.30
2018-04-02T01:59:41.404Z,8.47
2018-04-02T02:09:54.759Z,8.00
2018-04-02T02:20:06.370Z,7.90
2018-04-02T02:30:20.380Z,8.23
2018-04-02T02:40:35.885Z,7.93
2018-04-02T02:50:50.714Z,7.43
2018-04-02T03:01:01.771Z,7.40
2018-04-02T03:11:16.468Z,7.03
2018-04-02T04:04:11.975Z,7.40
2018-04-02T04:14:32.519Z,8.17
2018-04-02T04:24:47.168Z,7.50
2018-04-02T04:34:56.729Z,7.60
2018-04-02T04:45:06.779Z,9.20
2018-04-02T04:55:16.208Z,11.20
2018-04-02T05:05:30.348Z,15.90
2018-04-02T05:15:42.886Z,16.60
2018-04-02T05:25:52.314Z,16.70
2018-04-02T05:36:04.803Z,15.97
2018-04-02T05:46:13.603Z,16.53
2018-04-02T05:56:28.315Z,16.97
2018-04-02T06:06:40.225Z,15.60
2018-04-02T06:17:00.891Z,15.53
2018-04-02T06:27:22.816Z,15.00
2018-04-02T06:37:33.378Z,13.97
2018-04-02T06:47:42.817Z,13.93
2018-04-02T06:57:53.277Z,13.90
2018-04-02T07:08:04.602Z,12.97
2018-04-02T07:18:19.881Z,11.83
2018-04-02T07:28:36.662Z,11.60
2018-04-02T07:38:55.616Z,11.30
2018-04-02T07:49:07.471Z,10.57
2018-04-02T07:59:22.615Z,10.87
2018-04-02T08:09:37.162Z,11.07
2018-04-02T08:19:45.764Z,10.50
2018-04-02T08:29:56.721Z,11.27
2018-04-02T08:40:14.331Z,10.03
2018-04-02T08:50:35.928Z,10.33
2018-04-02T09:00:51.560Z,10.10
2018-04-02T09:11:02.022Z,10.40
2018-04-02T09:21:18.268Z,10.10
2018-04-02T09:31:37.711Z,9.67
2018-04-02T09:41:53.732Z,9.13
2018-04-02T09:52:07.511Z,9.10
2018-04-02T10:02:16.993Z,9.00
2018-04-02T10:12:28.919Z,8.47
2018-04-02T10:22:38.831Z,8.33
2018-04-02T10:32:49.147Z,8.00
2018-04-02T10:42:59.429Z,8.13
2018-04-02T10:53:14.524Z,7.60
2018-04-02T11:03:22.836Z,7.87
2018-04-02T11:13:34.180Z,7.80
2018-04-02T11:23:48.820Z,7.80
2018-04-02T11:33:58.883Z,7.50
2018-04-02T11:44:11.765Z,7.10
2018-04-02T11:54:24.675Z,8.50
2018-04-02T12:04:41.580Z,8.50
2018-04-02T12:15:06.255Z,8.00
2018-04-02T12:25:18.291Z,8.10
2018-04-02T12:45:49.987Z,8.67
2018-04-02T12:56:05.183Z,8.50
2018-04-02T13:06:31.552Z,8.07
2018-04-02T13:16:43.157Z,8.83
2018-04-02T13:27:00.000Z,8.40
2018-04-02T13:37:11.013Z,9.30
2018-04-02T13:47:32.237Z,7.63
2018-04-02T13:57:49.756Z,7.60
2018-04-02T14:08:06.368Z,7.70
2018-04-02T14:18:19.771Z,7.60
2018-04-02T14:28:38.614Z,7.53
2018-04-02T14:38:55.471Z,7.03
2018-04-02T14:49:14.213Z,7.30
2018-04-02T14:59:24.026Z,7.17
2018-04-02T15:09:38.041Z,6.53
2018-04-02T15:19:50.973Z,6.53
2018-04-02T15:30:02.057Z,6.70
2018-04-02T15:40:16.783Z,6.53
2018-04-02T15:50:28.199Z,6.67
2018-04-02T16:00:40.663Z,6.07
2018-04-02T16:21:15.841Z,6.43
2018-04-02T16:31:42.380Z,6.43
2018-04-02T16:52:32.636Z,5.90
2018-04-02T17:13:17.423Z,6.10
2018-04-02T17:34:05.635Z,5.77
2018-04-02T17:54:41.288Z,7.20
2018-04-02T18:05:04.847Z,7.87
2018-04-02T18:15:13.881Z,7.47
2018-04-02T18:25:28.930Z,6.60
2018-04-02T18:56:24.173Z,6.77
2018-04-02T19:06:37.385Z,6.17
2018-04-02T19:48:23.287Z,5.97
2018-04-02T19:58:40.213Z,6.30
2018-04-02T20:08:51.806Z,6.30
2018-04-02T20:19:06.333Z,6.10
2018-04-02T20:29:21.141Z,5.77
2018-04-02T20:39:30.157Z,6.13
2018-04-02T20:49:41.568Z,5.97
2018-04-02T20:59:56.057Z,6.83
2018-04-02T21:10:10.348Z,6.60
2018-04-02T21:30:46.586Z,8.57
2018-04-02T21:40:56.227Z,14.90
2018-04-02T21:51:06.729Z,17.33
2018-04-02T22:01:23.529Z,15.37
2018-04-02T22:11:33.024Z,15.13
2018-04-02T22:21:41.340Z,13.87
2018-04-02T22:31:51.380Z,12.73
2018-04-02T22:42:07.485Z,12.07
2018-04-02T22:52:16.591Z,11.33
2018-04-02T23:02:42.019Z,10.50
2018-04-02T23:12:51.986Z,10.33
2018-04-02T23:23:10.167Z,10.27
2018-04-02T23:43:33.090Z,9.50
2018-04-02T23:53:50.439Z,9.43
